sensor_id;sensor_type;location;lat;lon;timestamp;temperature;humidity
79026;DHT22;74892;44.760;37.726;2024-02-15T00:01:45;12.75;65.57
79026;DHT22;74892;44.760;37.726;2024-02-15T00:06:10;12.69;65.92
79026;DHT22;74892;44.760;37.726;2024-02-15T00:11:44;12.58;65.53
79026;DHT22;74892;44.760;37.726;2024-02-15T00:13:00;12.64;65.63
79026;DHT22;74892;44.760;37.726;2024-02-15T00:14:15;12.65;65.70
79026;DHT22;74892;44.760;37.726;2024-02-15T00:18:09;12.53;66.27
79026;DHT22;74892;44.760;37.726;2024-02-15T00:19:30;12.52;66.56
79026;DHT22;74892;44.760;37.726;2024-02-15T00:20:54;12.51;66.15
79026;DHT22;74892;44.760;37.726;2024-02-15T00:22:12;12.51;65.46
79026;DHT22;74892;44.760;37.726;2024-02-15T00:23:41;12.52;65.96
79026;DHT22;74892;44.760;37.726;2024-02-15T00:35:06;12.36;66.51
79026;DHT22;74892;44.760;37.726;2024-02-15T00:37:28;12.37;66.33
79026;DHT22;74892;44.760;37.726;2024-02-15T00:38:54;12.32;66.30
79026;DHT22;74892;44.760;37.726;2024-02-15T00:40:11;12.40;66.17
79026;DHT22;74892;44.760;37.726;2024-02-15T00:41:26;12.41;66.11
79026;DHT22;74892;44.760;37.726;2024-02-15T00:42:31;12.41;66.43
79026;DHT22;74892;44.760;37.726;2024-02-15T00:43:44;12.37;66.61
79026;DHT22;74892;44.760;37.726;2024-02-15T00:45:30;12.28;67.15
79026;DHT22;74892;44.760;37.726;2024-02-15T00:47:29;12.19;67.39
79026;DHT22;74892;44.760;37.726;2024-02-15T00:51:42;12.05;67.90
79026;DHT22;74892;44.760;37.726;2024-02-15T00:56:42;12.04;67.74
79026;DHT22;74892;44.760;37.726;2024-02-15T01:04:20;11.99;68.82
79026;DHT22;74892;44.760;37.726;2024-02-15T01:06:54;11.96;67.72
79026;DHT22;74892;44.760;37.726;2024-02-15T01:08:22;11.94;68.62
79026;DHT22;74892;44.760;37.726;2024-02-15T01:12:23;11.78;68.88
79026;DHT22;74892;44.760;37.726;2024-02-15T01:14:19;11.72;69.42
79026;DHT22;74892;44.760;37.726;2024-02-15T01:15:37;11.78;68.75
79026;DHT22;74892;44.760;37.726;2024-02-15T01:16:50;11.77;69.21
79026;DHT22;74892;44.760;37.726;2024-02-15T01:23:03;11.62;69.06
79026;DHT22;74892;44.760;37.726;2024-02-15T01:24:35;11.63;68.71
79026;DHT22;74892;44.760;37.726;2024-02-15T01:26:46;11.68;68.95
79026;DHT22;74892;44.760;37.726;2024-02-15T01:28:10;11.59;69.30
79026;DHT22;74892;44.760;37.726;2024-02-15T01:36:13;11.54;69.83
79026;DHT22;74892;44.760;37.726;2024-02-15T01:47:34;11.46;70.48
79026;DHT22;74892;44.760;37.726;2024-02-15T01:52:40;11.26;71.45
79026;DHT22;74892;44.760;37.726;2024-02-15T01:57:58;11.23;71.90
79026;DHT22;74892;44.760;37.726;2024-02-15T02:05:05;11.16;72.55
79026;DHT22;74892;44.760;37.726;2024-02-15T02:10:09;11.17;72.02
79026;DHT22;74892;44.760;37.726;2024-02-15T02:11:55;11.17;72.19
79026;DHT22;74892;44.760;37.726;2024-02-15T02:28:53;11.03;72.89
79026;DHT22;74892;44.760;37.726;2024-02-15T02:40:30;10.79;74.60
79026;DHT22;74892;44.760;37.726;2024-02-15T02:43:29;10.62;75.20
79026;DHT22;74892;44.760;37.726;2024-02-15T02:45:18;10.59;75.38
79026;DHT22;74892;44.760;37.726;2024-02-15T02:47:01;10.57;75.44
79026;DHT22;74892;44.760;37.726;2024-02-15T02:48:39;10.56;75.60
79026;DHT22;74892;44.760;37.726;2024-02-15T02:49:59;10.49;75.89
79026;DHT22;74892;44.760;37.726;2024-02-15T02:51:42;10.50;76.12
79026;DHT22;74892;44.760;37.726;2024-02-15T02:52:46;10.51;76.10
79026;DHT22;74892;44.760;37.726;2024-02-15T03:10:40;10.22;77.39
79026;DHT22;74892;44.760;37.726;2024-02-15T03:15:13;10.19;77.38
79026;DHT22;74892;44.760;37.726;2024-02-15T03:16:15;10.18;77.47
79026;DHT22;74892;44.760;37.726;2024-02-15T03:20:09;10.18;77.44
79026;DHT22;74892;44.760;37.726;2024-02-15T03:25:26;10.05;77.63
79026;DHT22;74892;44.760;37.726;2024-02-15T03:26:45;10.08;77.80
79026;DHT22;74892;44.760;37.726;2024-02-15T03:28:20;10.07;77.45
79026;DHT22;74892;44.760;37.726;2024-02-15T03:31:43;10.04;77.29
79026;DHT22;74892;44.760;37.726;2024-02-15T03:33:05;10.08;77.38
79026;DHT22;74892;44.760;37.726;2024-02-15T03:45:49;10.01;77.22
79026;DHT22;74892;44.760;37.726;2024-02-15T03:59:47;9.95;77.27
79026;DHT22;74892;44.760;37.726;2024-02-15T04:22:59;9.92;78.21
79026;DHT22;74892;44.760;37.726;2024-02-15T04:24:01;9.93;78.43
79026;DHT22;74892;44.760;37.726;2024-02-15T04:25:05;9.93;78.40
79026;DHT22;74892;44.760;37.726;2024-02-15T04:26:12;9.94;78.21
79026;DHT22;74892;44.760;37.726;2024-02-15T04:27:15;9.92;78.53
79026;DHT22;74892;44.760;37.726;2024-02-15T04:28:17;9.92;78.53
79026;DHT22;74892;44.760;37.726;2024-02-15T04:29:19;9.93;78.40
79026;DHT22;74892;44.760;37.726;2024-02-15T04:30:24;9.91;78.54
79026;DHT22;74892;44.760;37.726;2024-02-15T04:31:26;9.88;78.45
79026;DHT22;74892;44.760;37.726;2024-02-15T04:32:28;9.86;78.73
79026;DHT22;74892;44.760;37.726;2024-02-15T04:33:35;9.84;79.11
79026;DHT22;74892;44.760;37.726;2024-02-15T04:34:39;9.81;79.03
79026;DHT22;74892;44.760;37.726;2024-02-15T04:35:54;9.80;79.22
79026;DHT22;74892;44.760;37.726;2024-02-15T04:36:59;9.77;79.03
79026;DHT22;74892;44.760;37.726;2024-02-15T04:38:01;9.80;79.04
79026;DHT22;74892;44.760;37.726;2024-02-15T04:39:11;9.81;78.80
79026;DHT22;74892;44.760;37.726;2024-02-15T04:40:21;9.86;78.70
79026;DHT22;74892;44.760;37.726;2024-02-15T04:41:27;9.86;78.67
79026;DHT22;74892;44.760;37.726;2024-02-15T04:42:45;9.91;78.50
79026;DHT22;74892;44.760;37.726;2024-02-15T04:43:50;9.91;78.59
79026;DHT22;74892;44.760;37.726;2024-02-15T04:44:59;9.93;78.63
79026;DHT22;74892;44.760;37.726;2024-02-15T04:46:01;9.91;78.88
79026;DHT22;74892;44.760;37.726;2024-02-15T04:47:06;9.91;78.77
79026;DHT22;74892;44.760;37.726;2024-02-15T04:48:14;9.90;78.78
79026;DHT22;74892;44.760;37.726;2024-02-15T04:49:21;9.94;78.50
79026;DHT22;74892;44.760;37.726;2024-02-15T04:50:33;9.96;78.06
79026;DHT22;74892;44.760;37.726;2024-02-15T04:51:35;9.98;78.15
79026;DHT22;74892;44.760;37.726;2024-02-15T04:52:38;10.01;78.35
79026;DHT22;74892;44.760;37.726;2024-02-15T04:53:41;10.04;77.85
79026;DHT22;74892;44.760;37.726;2024-02-15T04:54:43;10.08;77.52
79026;DHT22;74892;44.760;37.726;2024-02-15T04:55:46;10.08;77.44
79026;DHT22;74892;44.760;37.726;2024-02-15T04:56:48;10.10;77.65
79026;DHT22;74892;44.760;37.726;2024-02-15T04:57:54;10.09;76.76
79026;DHT22;74892;44.760;37.726;2024-02-15T04:58:59;10.07;76.65
79026;DHT22;74892;44.760;37.726;2024-02-15T05:00:01;10.11;76.57
79026;DHT22;74892;44.760;37.726;2024-02-15T05:01:29;10.09;76.46
79026;DHT22;74892;44.760;37.726;2024-02-15T05:30:29;10.16;75.25
79026;DHT22;74892;44.760;37.726;2024-02-15T05:37:49;9.90;76.83
79026;DHT22;74892;44.760;37.726;2024-02-15T05:59:54;10.06;75.62
79026;DHT22;74892;44.760;37.726;2024-02-15T06:38:57;9.68;75.76
79026;DHT22;74892;44.760;37.726;2024-02-15T06:40:22;9.63;76.20
79026;DHT22;74892;44.760;37.726;2024-02-15T06:41:24;9.60;76.46
79026;DHT22;74892;44.760;37.726;2024-02-15T06:42:30;9.53;76.41
79026;DHT22;74892;44.760;37.726;2024-02-15T06:43:35;9.50;76.97
79026;DHT22;74892;44.760;37.726;2024-02-15T06:44:38;9.48;76.95
79026;DHT22;74892;44.760;37.726;2024-02-15T06:45:43;9.51;76.73
79026;DHT22;74892;44.760;37.726;2024-02-15T06:46:51;9.51;76.62
79026;DHT22;74892;44.760;37.726;2024-02-15T06:48:04;9.46;77.02
79026;DHT22;74892;44.760;37.726;2024-02-15T06:49:08;9.55;77.01
79026;DHT22;74892;44.760;37.726;2024-02-15T06:50:11;9.61;76.02
79026;DHT22;74892;44.760;37.726;2024-02-15T06:51:22;9.68;76.12
79026;DHT22;74892;44.760;37.726;2024-02-15T06:52:27;9.67;75.67
79026;DHT22;74892;44.760;37.726;2024-02-15T06:53:33;9.62;76.22
79026;DHT22;74892;44.760;37.726;2024-02-15T06:54:35;9.57;76.24
79026;DHT22;74892;44.760;37.726;2024-02-15T06:55:37;9.56;76.24
79026;DHT22;74892;44.760;37.726;2024-02-15T06:56:40;9.57;76.18
79026;DHT22;74892;44.760;37.726;2024-02-15T06:57:42;9.61;76.08
79026;DHT22;74892;44.760;37.726;2024-02-15T06:58:44;9.57;76.01
79026;DHT22;74892;44.760;37.726;2024-02-15T06:59:47;9.51;76.47
79026;DHT22;74892;44.760;37.726;2024-02-15T07:00:49;9.54;76.31
79026;DHT22;74892;44.760;37.726;2024-02-15T07:01:52;9.56;75.85
79026;DHT22;74892;44.760;37.726;2024-02-15T07:03:04;9.50;76.42
79026;DHT22;74892;44.760;37.726;2024-02-15T07:04:06;9.49;76.23
79026;DHT22;74892;44.760;37.726;2024-02-15T07:05:08;9.55;76.28
79026;DHT22;74892;44.760;37.726;2024-02-15T07:06:11;9.63;75.90
79026;DHT22;74892;44.760;37.726;2024-02-15T07:07:16;9.71;75.33
79026;DHT22;74892;44.760;37.726;2024-02-15T07:08:18;9.80;75.50
79026;DHT22;74892;44.760;37.726;2024-02-15T07:09:20;9.82;74.67
79026;DHT22;74892;44.760;37.726;2024-02-15T07:10:25;9.83;74.92
79026;DHT22;74892;44.760;37.726;2024-02-15T07:11:27;9.81;75.15
79026;DHT22;74892;44.760;37.726;2024-02-15T07:12:29;9.84;74.51
79026;DHT22;74892;44.760;37.726;2024-02-15T07:13:31;9.82;75.05
79026;DHT22;74892;44.760;37.726;2024-02-15T07:14:37;9.81;75.38
79026;DHT22;74892;44.760;37.726;2024-02-15T07:15:39;9.81;74.99
79026;DHT22;74892;44.760;37.726;2024-02-15T07:16:47;9.82;74.55
79026;DHT22;74892;44.760;37.726;2024-02-15T07:17:49;9.82;74.48
79026;DHT22;74892;44.760;37.726;2024-02-15T07:18:51;9.84;74.64
79026;DHT22;74892;44.760;37.726;2024-02-15T07:19:53;9.80;74.46
79026;DHT22;74892;44.760;37.726;2024-02-15T07:20:55;9.77;74.96
79026;DHT22;74892;44.760;37.726;2024-02-15T07:22:01;9.64;74.99
79026;DHT22;74892;44.760;37.726;2024-02-15T07:23:02;9.61;75.48
79026;DHT22;74892;44.760;37.726;2024-02-15T07:24:05;9.56;75.55
79026;DHT22;74892;44.760;37.726;2024-02-15T07:25:07;9.64;75.44
79026;DHT22;74892;44.760;37.726;2024-02-15T07:26:09;9.65;75.16
79026;DHT22;74892;44.760;37.726;2024-02-15T07:27:16;9.60;75.50
79026;DHT22;74892;44.760;37.726;2024-02-15T07:28:20;9.69;75.34
79026;DHT22;74892;44.760;37.726;2024-02-15T07:29:23;9.83;75.02
79026;DHT22;74892;44.760;37.726;2024-02-15T07:30:25;9.95;74.34
79026;DHT22;74892;44.760;37.726;2024-02-15T07:31:28;9.89;73.60
79026;DHT22;74892;44.760;37.726;2024-02-15T07:32:31;9.83;74.30
79026;DHT22;74892;44.760;37.726;2024-02-15T07:33:38;9.94;74.08
79026;DHT22;74892;44.760;37.726;2024-02-15T07:34:40;10.01;73.53
79026;DHT22;74892;44.760;37.726;2024-02-15T07:35:43;10.10;74.01
79026;DHT22;74892;44.760;37.726;2024-02-15T07:36:45;10.14;72.93
79026;DHT22;74892;44.760;37.726;2024-02-15T07:37:54;10.12;72.62
79026;DHT22;74892;44.760;37.726;2024-02-15T07:38:57;10.10;73.57
79026;DHT22;74892;44.760;37.726;2024-02-15T07:40:05;10.11;73.13
79026;DHT22;74892;44.760;37.726;2024-02-15T07:41:12;9.91;73.80
79026;DHT22;74892;44.760;37.726;2024-02-15T07:42:14;9.86;73.51
79026;DHT22;74892;44.760;37.726;2024-02-15T07:43:19;9.82;74.78
79026;DHT22;74892;44.760;37.726;2024-02-15T07:44:21;9.82;73.83
79026;DHT22;74892;44.760;37.726;2024-02-15T07:45:28;9.78;73.94
79026;DHT22;74892;44.760;37.726;2024-02-15T07:46:30;9.77;74.12
79026;DHT22;74892;44.760;37.726;2024-02-15T07:47:35;9.80;73.99
79026;DHT22;74892;44.760;37.726;2024-02-15T07:48:42;9.78;74.12
79026;DHT22;74892;44.760;37.726;2024-02-15T07:50:07;9.59;74.89
79026;DHT22;74892;44.760;37.726;2024-02-15T07:51:15;9.61;75.15
79026;DHT22;74892;44.760;37.726;2024-02-15T07:52:20;9.55;74.70
79026;DHT22;74892;44.760;37.726;2024-02-15T07:53:36;9.55;75.28
79026;DHT22;74892;44.760;37.726;2024-02-15T07:55:05;9.62;74.83
79026;DHT22;74892;44.760;37.726;2024-02-15T07:56:39;9.66;75.31
79026;DHT22;74892;44.760;37.726;2024-02-15T07:57:50;9.72;74.41
79026;DHT22;74892;44.760;37.726;2024-02-15T07:58:54;9.89;73.80
79026;DHT22;74892;44.760;37.726;2024-02-15T07:59:59;9.93;72.29
79026;DHT22;74892;44.760;37.726;2024-02-15T08:01:08;10.08;72.63
79026;DHT22;74892;44.760;37.726;2024-02-15T08:02:13;10.34;71.84
79026;DHT22;74892;44.760;37.726;2024-02-15T08:03:21;10.71;70.31
79026;DHT22;74892;44.760;37.726;2024-02-15T08:04:26;10.93;69.13
79026;DHT22;74892;44.760;37.726;2024-02-15T08:05:31;11.16;68.27
79026;DHT22;74892;44.760;37.726;2024-02-15T08:06:33;11.16;67.86
79026;DHT22;74892;44.760;37.726;2024-02-15T08:07:46;11.30;67.77
79026;DHT22;74892;44.760;37.726;2024-02-15T08:08:53;11.64;66.41
79026;DHT22;74892;44.760;37.726;2024-02-15T08:09:55;11.75;66.09
79026;DHT22;74892;44.760;37.726;2024-02-15T08:10:59;11.63;66.30
79026;DHT22;74892;44.760;37.726;2024-02-15T08:12:01;11.53;66.53
79026;DHT22;74892;44.760;37.726;2024-02-15T08:13:04;11.64;66.18
79026;DHT22;74892;44.760;37.726;2024-02-15T08:14:06;11.61;66.30
79026;DHT22;74892;44.760;37.726;2024-02-15T08:15:13;11.96;65.30
79026;DHT22;74892;44.760;37.726;2024-02-15T08:16:22;12.19;64.23
79026;DHT22;74892;44.760;37.726;2024-02-15T08:17:24;12.27;63.71
79026;DHT22;74892;44.760;37.726;2024-02-15T08:18:29;12.23;64.09
79026;DHT22;74892;44.760;37.726;2024-02-15T08:19:31;12.35;63.44
79026;DHT22;74892;44.760;37.726;2024-02-15T08:20:36;12.41;63.47
79026;DHT22;74892;44.760;37.726;2024-02-15T08:21:41;12.59;62.17
79026;DHT22;74892;44.760;37.726;2024-02-15T08:22:52;12.12;64.24
79026;DHT22;74892;44.760;37.726;2024-02-15T08:23:55;12.03;64.46
79026;DHT22;74892;44.760;37.726;2024-02-15T08:24:59;12.12;64.60
79026;DHT22;74892;44.760;37.726;2024-02-15T08:26:01;12.31;63.74
79026;DHT22;74892;44.760;37.726;2024-02-15T08:27:03;12.67;62.42
79026;DHT22;74892;44.760;37.726;2024-02-15T08:28:08;12.89;61.74
79026;DHT22;74892;44.760;37.726;2024-02-15T08:29:11;12.89;61.28
79026;DHT22;74892;44.760;37.726;2024-02-15T08:30:16;12.59;62.21
79026;DHT22;74892;44.760;37.726;2024-02-15T08:31:18;12.50;62.28
79026;DHT22;74892;44.760;37.726;2024-02-15T08:32:23;12.50;62.96
79026;DHT22;74892;44.760;37.726;2024-02-15T08:33:27;12.45;61.98
79026;DHT22;74892;44.760;37.726;2024-02-15T08:34:32;12.22;63.40
79026;DHT22;74892;44.760;37.726;2024-02-15T08:35:37;12.38;62.72
79026;DHT22;74892;44.760;37.726;2024-02-15T08:36:42;12.65;61.96
79026;DHT22;74892;44.760;37.726;2024-02-15T08:37:47;12.87;61.04
79026;DHT22;74892;44.760;37.726;2024-02-15T08:38:51;12.75;60.53
79026;DHT22;74892;44.760;37.726;2024-02-15T08:39:53;12.72;62.02
79026;DHT22;74892;44.760;37.726;2024-02-15T08:40:55;12.95;61.06
79026;DHT22;74892;44.760;37.726;2024-02-15T08:41:57;13.17;60.14
79026;DHT22;74892;44.760;37.726;2024-02-15T08:43:00;13.37;59.64
79026;DHT22;74892;44.760;37.726;2024-02-15T08:44:02;13.24;59.33
79026;DHT22;74892;44.760;37.726;2024-02-15T08:45:10;13.06;59.96
79026;DHT22;74892;44.760;37.726;2024-02-15T08:46:12;13.19;59.68
79026;DHT22;74892;44.760;37.726;2024-02-15T08:47:17;13.06;60.64
79026;DHT22;74892;44.760;37.726;2024-02-15T08:48:19;13.02;60.51
79026;DHT22;74892;44.760;37.726;2024-02-15T08:49:21;13.02;60.80
79026;DHT22;74892;44.760;37.726;2024-02-15T08:50:30;12.92;60.72
79026;DHT22;74892;44.760;37.726;2024-02-15T08:51:44;12.77;59.98
79026;DHT22;74892;44.760;37.726;2024-02-15T08:52:52;12.87;61.12
79026;DHT22;74892;44.760;37.726;2024-02-15T08:53:54;12.94;60.75
79026;DHT22;74892;44.760;37.726;2024-02-15T08:54:59;12.55;62.07
79026;DHT22;74892;44.760;37.726;2024-02-15T08:56:04;12.51;60.94
79026;DHT22;74892;44.760;37.726;2024-02-15T08:57:07;12.59;61.06
79026;DHT22;74892;44.760;37.726;2024-02-15T08:58:17;12.53;62.02
79026;DHT22;74892;44.760;37.726;2024-02-15T08:59:19;12.77;60.98
79026;DHT22;74892;44.760;37.726;2024-02-15T09:00:21;12.74;61.15
79026;DHT22;74892;44.760;37.726;2024-02-15T09:01:28;12.69;61.50
79026;DHT22;74892;44.760;37.726;2024-02-15T09:02:33;12.58;61.53
79026;DHT22;74892;44.760;37.726;2024-02-15T09:03:34;12.58;62.02
79026;DHT22;74892;44.760;37.726;2024-02-15T09:04:37;12.77;61.40
79026;DHT22;74892;44.760;37.726;2024-02-15T09:05:47;12.92;60.89
79026;DHT22;74892;44.760;37.726;2024-02-15T09:06:51;13.05;59.80
79026;DHT22;74892;44.760;37.726;2024-02-15T09:08:07;13.29;60.11
79026;DHT22;74892;44.760;37.726;2024-02-15T09:09:12;13.38;59.16
79026;DHT22;74892;44.760;37.726;2024-02-15T09:10:19;13.30;59.30
79026;DHT22;74892;44.760;37.726;2024-02-15T09:11:29;13.12;58.94
79026;DHT22;74892;44.760;37.726;2024-02-15T09:12:31;13.27;59.22
79026;DHT22;74892;44.760;37.726;2024-02-15T09:13:38;13.35;57.77
79026;DHT22;74892;44.760;37.726;2024-02-15T09:14:45;13.31;59.49
79026;DHT22;74892;44.760;37.726;2024-02-15T09:15:52;13.10;59.89
79026;DHT22;74892;44.760;37.726;2024-02-15T09:17:32;13.00;60.38
79026;DHT22;74892;44.760;37.726;2024-02-15T09:18:43;12.97;59.90
79026;DHT22;74892;44.760;37.726;2024-02-15T09:19:56;12.80;60.83
79026;DHT22;74892;44.760;37.726;2024-02-15T09:20:58;12.72;61.52
79026;DHT22;74892;44.760;37.726;2024-02-15T09:22:09;12.69;61.79
79026;DHT22;74892;44.760;37.726;2024-02-15T09:23:20;12.94;61.17
79026;DHT22;74892;44.760;37.726;2024-02-15T09:25:22;12.75;61.14
79026;DHT22;74892;44.760;37.726;2024-02-15T09:27:02;12.57;61.67
79026;DHT22;74892;44.760;37.726;2024-02-15T09:29:28;12.46;62.64
79026;DHT22;74892;44.760;37.726;2024-02-15T09:40:35;12.31;63.00
79026;DHT22;74892;44.760;37.726;2024-02-15T09:44:05;12.31;63.23
79026;DHT22;74892;44.760;37.726;2024-02-15T09:46:02;12.94;60.87
79026;DHT22;74892;44.760;37.726;2024-02-15T09:47:19;13.16;60.45
79026;DHT22;74892;44.760;37.726;2024-02-15T09:48:50;12.86;61.02
79026;DHT22;74892;44.760;37.726;2024-02-15T09:50:07;12.80;61.20
79026;DHT22;74892;44.760;37.726;2024-02-15T09:51:41;12.76;61.59
79026;DHT22;74892;44.760;37.726;2024-02-15T09:53:08;12.61;61.70
79026;DHT22;74892;44.760;37.726;2024-02-15T09:54:43;12.57;61.67
79026;DHT22;74892;44.760;37.726;2024-02-15T09:56:05;12.87;61.22
79026;DHT22;74892;44.760;37.726;2024-02-15T09:57:17;13.04;60.09
79026;DHT22;74892;44.760;37.726;2024-02-15T09:58:27;13.10;59.42
79026;DHT22;74892;44.760;37.726;2024-02-15T10:02:38;12.41;62.32
79026;DHT22;74892;44.760;37.726;2024-02-15T10:03:43;12.51;62.13
79026;DHT22;74892;44.760;37.726;2024-02-15T10:05:07;12.38;62.60
79026;DHT22;74892;44.760;37.726;2024-02-15T10:06:24;12.55;62.23
79026;DHT22;74892;44.760;37.726;2024-02-15T10:07:50;12.69;61.83
79026;DHT22;74892;44.760;37.726;2024-02-15T10:09:41;12.82;61.34
79026;DHT22;74892;44.760;37.726;2024-02-15T10:13:52;12.77;61.57
79026;DHT22;74892;44.760;37.726;2024-02-15T10:15:41;12.93;60.60
79026;DHT22;74892;44.760;37.726;2024-02-15T10:17:11;13.32;59.06
79026;DHT22;74892;44.760;37.726;2024-02-15T10:18:36;13.39;58.73
79026;DHT22;74892;44.760;37.726;2024-02-15T10:20:37;13.25;59.50
79026;DHT22;74892;44.760;37.726;2024-02-15T10:22:21;13.37;59.03
79026;DHT22;74892;44.760;37.726;2024-02-15T10:23:37;13.22;59.77
79026;DHT22;74892;44.760;37.726;2024-02-15T10:25:52;13.20;59.56
79026;DHT22;74892;44.760;37.726;2024-02-15T10:27:23;13.36;59.54
79026;DHT22;74892;44.760;37.726;2024-02-15T10:29:16;13.44;58.99
79026;DHT22;74892;44.760;37.726;2024-02-15T10:32:36;12.85;61.05
79026;DHT22;74892;44.760;37.726;2024-02-15T10:33:52;12.85;61.34
79026;DHT22;74892;44.760;37.726;2024-02-15T10:35:02;12.88;60.71
79026;DHT22;74892;44.760;37.726;2024-02-15T10:36:16;12.61;61.69
79026;DHT22;74892;44.760;37.726;2024-02-15T10:37:28;12.23;62.83
79026;DHT22;74892;44.760;37.726;2024-02-15T10:38:37;12.01;63.68
79026;DHT22;74892;44.760;37.726;2024-02-15T10:40:22;11.77;64.66
79026;DHT22;74892;44.760;37.726;2024-02-15T10:42:15;11.54;65.79
79026;DHT22;74892;44.760;37.726;2024-02-15T10:43:52;11.61;65.43
79026;DHT22;74892;44.760;37.726;2024-02-15T10:45:07;11.38;66.01
79026;DHT22;74892;44.760;37.726;2024-02-15T10:46:58;11.07;67.74
79026;DHT22;74892;44.760;37.726;2024-02-15T10:48:21;11.08;66.01
79026;DHT22;74892;44.760;37.726;2024-02-15T10:50:31;11.29;66.17
79026;DHT22;74892;44.760;37.726;2024-02-15T10:52:18;11.07;66.87
79026;DHT22;74892;44.760;37.726;2024-02-15T10:53:56;11.02;67.39
79026;DHT22;74892;44.760;37.726;2024-02-15T10:56:33;11.22;66.62
79026;DHT22;74892;44.760;37.726;2024-02-15T10:58:32;11.26;66.59
79026;DHT22;74892;44.760;37.726;2024-02-15T11:00:23;11.28;66.88
79026;DHT22;74892;44.760;37.726;2024-02-15T11:02:34;11.14;66.69
79026;DHT22;74892;44.760;37.726;2024-02-15T11:04:51;11.37;66.80
79026;DHT22;74892;44.760;37.726;2024-02-15T11:06:42;11.42;66.09
79026;DHT22;74892;44.760;37.726;2024-02-15T11:08:10;11.56;65.95
79026;DHT22;74892;44.760;37.726;2024-02-15T11:09:31;11.62;65.50
79026;DHT22;74892;44.760;37.726;2024-02-15T11:11:16;11.29;66.78
79026;DHT22;74892;44.760;37.726;2024-02-15T11:13:23;11.14;67.10
79026;DHT22;74892;44.760;37.726;2024-02-15T11:15:07;11.12;67.39
79026;DHT22;74892;44.760;37.726;2024-02-15T11:16:39;11.01;66.99
79026;DHT22;74892;44.760;37.726;2024-02-15T11:19:20;10.80;68.11
79026;DHT22;74892;44.760;37.726;2024-02-15T11:22:27;10.70;68.98
79026;DHT22;74892;44.760;37.726;2024-02-15T11:23:53;10.72;68.28
79026;DHT22;74892;44.760;37.726;2024-02-15T11:25:39;10.58;69.01
79026;DHT22;74892;44.760;37.726;2024-02-15T11:27:26;10.51;68.87
79026;DHT22;74892;44.760;37.726;2024-02-15T11:28:53;10.41;69.64
79026;DHT22;74892;44.760;37.726;2024-02-15T11:30:40;10.49;69.58
79026;DHT22;74892;44.760;37.726;2024-02-15T11:31:56;10.46;69.84
79026;DHT22;74892;44.760;37.726;2024-02-15T11:33:52;10.40;69.88
79026;DHT22;74892;44.760;37.726;2024-02-15T11:35:30;10.33;70.29
79026;DHT22;74892;44.760;37.726;2024-02-15T11:36:59;10.36;69.88
79026;DHT22;74892;44.760;37.726;2024-02-15T11:41:06;10.30;70.53
79026;DHT22;74892;44.760;37.726;2024-02-15T11:42:35;10.30;70.32
79026;DHT22;74892;44.760;37.726;2024-02-15T11:45:02;10.23;70.67
79026;DHT22;74892;44.760;37.726;2024-02-15T11:46:06;10.21;70.77
79026;DHT22;74892;44.760;37.726;2024-02-15T11:47:12;10.19;71.18
79026;DHT22;74892;44.760;37.726;2024-02-15T11:48:15;10.23;70.64
79026;DHT22;74892;44.760;37.726;2024-02-15T11:49:17;10.26;70.71
79026;DHT22;74892;44.760;37.726;2024-02-15T11:50:21;10.24;70.82
79026;DHT22;74892;44.760;37.726;2024-02-15T11:51:34;10.27;70.48
79026;DHT22;74892;44.760;37.726;2024-02-15T11:52:44;10.24;70.66
79026;DHT22;74892;44.760;37.726;2024-02-15T11:53:59;10.23;70.81
79026;DHT22;74892;44.760;37.726;2024-02-15T11:55:05;10.27;70.81
79026;DHT22;74892;44.760;37.726;2024-02-15T11:56:11;10.24;70.73
79026;DHT22;74892;44.760;37.726;2024-02-15T11:57:17;10.26;70.78
79026;DHT22;74892;44.760;37.726;2024-02-15T11:58:38;10.30;70.81
79026;DHT22;74892;44.760;37.726;2024-02-15T11:59:53;10.29;70.23
79026;DHT22;74892;44.760;37.726;2024-02-15T12:01:14;10.40;70.36
79026;DHT22;74892;44.760;37.726;2024-02-15T12:02:35;10.41;70.06
79026;DHT22;74892;44.760;37.726;2024-02-15T12:03:56;10.43;70.00
79026;DHT22;74892;44.760;37.726;2024-02-15T12:05:17;10.42;70.09
79026;DHT22;74892;44.760;37.726;2024-02-15T12:06:38;10.50;69.90
79026;DHT22;74892;44.760;37.726;2024-02-15T12:07:59;10.54;69.58
79026;DHT22;74892;44.760;37.726;2024-02-15T12:09:19;10.58;69.63
79026;DHT22;74892;44.760;37.726;2024-02-15T12:10:39;10.56;69.89
79026;DHT22;74892;44.760;37.726;2024-02-15T12:12:00;10.54;69.79
79026;DHT22;74892;44.760;37.726;2024-02-15T12:13:21;10.59;69.69
79026;DHT22;74892;44.760;37.726;2024-02-15T12:14:41;10.60;69.65
79026;DHT22;74892;44.760;37.726;2024-02-15T12:16:01;10.55;69.84
79026;DHT22;74892;44.760;37.726;2024-02-15T12:17:23;10.56;69.78
79026;DHT22;74892;44.760;37.726;2024-02-15T12:18:44;10.60;69.88
79026;DHT22;74892;44.760;37.726;2024-02-15T12:19:49;10.60;69.74
79026;DHT22;74892;44.760;37.726;2024-02-15T12:20:55;10.55;69.93
79026;DHT22;74892;44.760;37.726;2024-02-15T12:21:58;10.50;70.16
79026;DHT22;74892;44.760;37.726;2024-02-15T12:23:00;10.49;70.40
79026;DHT22;74892;44.760;37.726;2024-02-15T12:24:03;10.43;70.26
79026;DHT22;74892;44.760;37.726;2024-02-15T12:25:07;10.44;70.53
79026;DHT22;74892;44.760;37.726;2024-02-15T12:26:13;10.40;70.63
79026;DHT22;74892;44.760;37.726;2024-02-15T12:27:16;10.30;70.80
79026;DHT22;74892;44.760;37.726;2024-02-15T12:28:18;10.24;71.17
79026;DHT22;74892;44.760;37.726;2024-02-15T12:29:20;10.27;71.22
79026;DHT22;74892;44.760;37.726;2024-02-15T12:30:22;10.23;71.13
79026;DHT22;74892;44.760;37.726;2024-02-15T12:31:27;10.16;71.71
79026;DHT22;74892;44.760;37.726;2024-02-15T12:32:29;10.25;71.29
79026;DHT22;74892;44.760;37.726;2024-02-15T12:33:33;10.27;70.90
79026;DHT22;74892;44.760;37.726;2024-02-15T12:34:35;10.27;70.94
79026;DHT22;74892;44.760;37.726;2024-02-15T12:35:40;10.23;70.85
79026;DHT22;74892;44.760;37.726;2024-02-15T12:36:43;10.16;71.38
79026;DHT22;74892;44.760;37.726;2024-02-15T12:37:46;10.15;71.39
79026;DHT22;74892;44.760;37.726;2024-02-15T12:38:59;10.10;71.26
79026;DHT22;74892;44.760;37.726;2024-02-15T12:40:10;10.05;71.76
79026;DHT22;74892;44.760;37.726;2024-02-15T12:41:21;10.06;71.77
79026;DHT22;74892;44.760;37.726;2024-02-15T12:42:23;10.01;71.72
79026;DHT22;74892;44.760;37.726;2024-02-15T12:43:25;9.97;72.11
79026;DHT22;74892;44.760;37.726;2024-02-15T12:44:28;9.97;71.88
79026;DHT22;74892;44.760;37.726;2024-02-15T12:45:38;9.93;72.06
79026;DHT22;74892;44.760;37.726;2024-02-15T12:46:41;9.94;72.04
79026;DHT22;74892;44.760;37.726;2024-02-15T12:47:43;9.86;71.94